Time;durP1;ratioP1;P1;durP2;ratioP2;P2;SDS_P1;SDS_P2;PMS_P1;PMS_P2;Temp;Humidity;BMP_temperature;BMP_pressure;BME280_temperature;BME280_humidity;BME280_pressure;Samples;Min_cycle;Max_cycle;Signal;HPM_P1;HPM_P2
2022/05/09 00:00:45;;;;;;;11.30;4.28;;;;;;;;;;5004841;28;20128;-82
2022/05/09 00:03:11;;;;;;;11.90;4.13;;;;;;;;;;5009355;28;20075;-81
2022/05/09 00:05:40;;;;;;;7.95;4.20;;;;;;;;;;5009463;28;20436;-82
2022/05/09 00:08:06;;;;;;;10.90;4.20;;;;;;;;;;5024054;28;20052;-81
2022/05/09 00:10:35;;;;;;;8.55;4.00;;;;;;;;;;5007505;28;20041;-82
2022/05/09 00:13:01;;;;;;;11.82;4.32;;;;;;;;;;5003039;28;20050;-82
2022/05/09 00:15:28;;;;;;;10.52;4.53;;;;;;;;;;5001331;28;20053;-82
2022/05/09 00:17:54;;;;;;;10.57;4.53;;;;;;;;;;5003847;28;20038;-82
2022/05/09 00:20:20;;;;;;;8.07;4.28;;;;;;;;;;5013688;28;20149;-82
2022/05/09 00:22:54;;;;;;;8.48;4.35;;;;;;;;;;5024615;28;20140;-82
2022/05/09 00:25:22;;;;;;;11.35;4.20;;;;;;;;;;5012242;28;20078;-82
2022/05/09 00:27:48;;;;;;;9.40;4.93;;;;;;;;;;5003751;28;20154;-83
2022/05/09 00:30:16;;;;;;;9.02;4.15;;;;;;;;;;5010097;28;20050;-82
2022/05/09 00:32:42;;;;;;;9.77;4.88;;;;;;;;;;5010146;28;20056;-82
2022/05/09 00:35:09;;;;;;;9.77;4.70;;;;;;;;;;5006503;28;20160;-82
2022/05/09 00:37:39;;;;;;;9.13;4.50;;;;;;;;;;5003121;28;20097;-82
2022/05/09 00:40:08;;;;;;;9.50;4.53;;;;;;;;;;5015439;28;20532;-82
2022/05/09 00:42:34;;;;;;;9.07;4.55;;;;;;;;;;5013660;28;20081;-81
2022/05/09 00:45:01;;;;;;;10.98;4.82;;;;;;;;;;5014157;28;20057;-82
2022/05/09 00:47:27;;;;;;;8.48;4.53;;;;;;;;;;5005592;28;20485;-82
2022/05/09 00:49:57;;;;;;;8.02;4.53;;;;;;;;;;5018778;28;20136;-82
2022/05/09 00:52:26;;;;;;;9.88;4.38;;;;;;;;;;5019244;28;20050;-82
2022/05/09 00:55:15;;;;;;;14.15;4.90;;;;;;;;;;5033888;28;20136;-82
2022/05/09 00:57:57;;;;;;;8.05;4.53;;;;;;;;;;4993325;28;20049;-83
2022/05/09 01:00:27;;;;;;;8.45;4.72;;;;;;;;;;5013390;28;20050;-82
2022/05/09 01:02:59;;;;;;;8.32;4.38;;;;;;;;;;5006877;28;20113;-82
2022/05/09 01:05:25;;;;;;;10.57;4.88;;;;;;;;;;5008571;28;20049;-82
2022/05/09 01:07:51;;;;;;;8.52;4.65;;;;;;;;;;5010329;28;20049;-82
2022/05/09 01:10:21;;;;;;;10.27;5.00;;;;;;;;;;5025539;28;20042;-82
2022/05/09 01:12:47;;;;;;;8.63;4.50;;;;;;;;;;5002372;28;20081;-82
2022/05/09 01:15:15;;;;;;;10.00;4.53;;;;;;;;;;5004056;28;20053;-82
2022/05/09 01:17:42;;;;;;;10.07;5.15;;;;;;;;;;5004658;28;20405;-82
2022/05/09 01:20:10;;;;;;;9.20;4.55;;;;;;;;;;4997549;28;20157;-82
2022/05/09 01:22:37;;;;;;;11.73;4.43;;;;;;;;;;5011564;28;20409;-82
2022/05/09 01:25:06;;;;;;;9.57;4.75;;;;;;;;;;4993839;28;20046;-82
2022/05/09 01:27:37;;;;;;;11.60;5.03;;;;;;;;;;4994054;28;20038;-82
2022/05/09 01:30:03;;;;;;;11.27;4.68;;;;;;;;;;5002723;28;20042;-82
2022/05/09 01:32:32;;;;;;;10.07;5.00;;;;;;;;;;5009374;28;20042;-82
2022/05/09 01:35:04;;;;;;;9.75;5.05;;;;;;;;;;5009961;28;20400;-82
2022/05/09 01:37:31;;;;;;;11.32;4.95;;;;;;;;;;5001626;28;20528;-82
2022/05/09 01:39:57;;;;;;;10.77;4.68;;;;;;;;;;5020061;28;20129;-82
2022/05/09 01:42:24;;;;;;;7.82;4.70;;;;;;;;;;5005796;28;20205;-82
2022/05/09 01:44:50;;;;;;;10.80;4.80;;;;;;;;;;4996060;28;20054;-82
2022/05/09 01:50:01;;;;;;;8.13;4.57;;;;;;;;;;5003135;28;20050;-82
2022/05/09 01:52:27;;;;;;;9.43;4.80;;;;;;;;;;5014436;28;20204;-82
2022/05/09 01:54:56;;;;;;;8.88;4.28;;;;;;;;;;4995982;28;20065;-83
2022/05/09 01:57:22;;;;;;;10.68;4.75;;;;;;;;;;5001819;28;20050;-83
2022/05/09 01:59:48;;;;;;;9.98;4.72;;;;;;;;;;5006596;28;20057;-83
2022/05/09 02:02:16;;;;;;;14.23;5.68;;;;;;;;;;5003265;28;20045;-82
2022/05/09 02:04:43;;;;;;;11.55;4.63;;;;;;;;;;4999924;28;20084;-83
2022/05/09 02:07:12;;;;;;;10.73;4.72;;;;;;;;;;5010045;28;20045;-82
2022/05/09 02:09:46;;;;;;;10.45;4.50;;;;;;;;;;5010934;28;20052;-82
2022/05/09 02:12:13;;;;;;;10.50;4.32;;;;;;;;;;4997693;28;20501;-81
2022/05/09 02:14:39;;;;;;;8.55;4.68;;;;;;;;;;4991799;28;20061;-82
2022/05/09 02:17:09;;;;;;;10.25;4.70;;;;;;;;;;5012765;28;20081;-82
2022/05/09 02:19:35;;;;;;;10.85;4.88;;;;;;;;;;5019023;28;20038;-82
2022/05/09 02:22:01;;;;;;;12.18;4.97;;;;;;;;;;5006878;28;20063;-82
2022/05/09 02:24:28;;;;;;;10.60;5.03;;;;;;;;;;5025713;28;20045;-82
2022/05/09 02:26:55;;;;;;;12.65;4.85;;;;;;;;;;5028439;28;20121;-82
2022/05/09 02:29:21;;;;;;;8.52;4.90;;;;;;;;;;5011478;28;20125;-83
2022/05/09 02:31:47;;;;;;;10.73;5.10;;;;;;;;;;4999265;28;20038;-82
2022/05/09 02:34:14;;;;;;;9.35;4.68;;;;;;;;;;5009384;28;20050;-82
2022/05/09 02:36:40;;;;;;;10.35;4.85;;;;;;;;;;4994815;28;20042;-82
2022/05/09 02:39:06;;;;;;;10.98;4.85;;;;;;;;;;5010232;28;20107;-82
2022/05/09 02:41:32;;;;;;;11.40;5.28;;;;;;;;;;4998945;28;20050;-82
2022/05/09 02:43:59;;;;;;;12.48;4.80;;;;;;;;;;5010037;28;20049;-81
2022/05/09 02:46:25;;;;;;;11.45;4.63;;;;;;;;;;5003238;28;20050;-82
2022/05/09 02:48:57;;;;;;;11.55;4.88;;;;;;;;;;5011490;28;20138;-82
2022/05/09 02:51:23;;;;;;;10.98;5.75;;;;;;;;;;5003678;28;20130;-82
2022/05/09 02:53:49;;;;;;;11.35;4.68;;;;;;;;;;5000065;28;20053;-82
2022/05/09 02:56:15;;;;;;;12.88;5.05;;;;;;;;;;5007274;28;20053;-82
2022/05/09 02:58:41;;;;;;;9.85;4.80;;;;;;;;;;5018134;28;20046;-83
2022/05/09 03:01:07;;;;;;;11.45;4.72;;;;;;;;;;5009515;28;20469;-82
2022/05/09 03:06:20;;;;;;;11.55;4.88;;;;;;;;;;5014451;28;20154;-82
2022/05/09 03:08:46;;;;;;;8.10;4.50;;;;;;;;;;5014235;28;20100;-82
2022/05/09 03:11:12;;;;;;;12.90;5.38;;;;;;;;;;4996180;28;20065;-82
2022/05/09 03:13:39;;;;;;;10.60;4.80;;;;;;;;;;5011796;28;20044;-83
2022/05/09 03:16:05;;;;;;;11.18;4.82;;;;;;;;;;5013478;28;20038;-83
2022/05/09 03:18:34;;;;;;;12.15;5.40;;;;;;;;;;5010299;28;20092;-82
2022/05/09 03:21:01;;;;;;;13.30;4.72;;;;;;;;;;5011863;28;20058;-82
2022/05/09 03:23:27;;;;;;;12.27;4.63;;;;;;;;;;5023314;28;20050;-82
2022/05/09 03:25:53;;;;;;;10.07;4.90;;;;;;;;;;5019589;28;20049;-82
2022/05/09 03:28:22;;;;;;;12.95;4.60;;;;;;;;;;5013505;28;20046;-83
2022/05/09 03:30:50;;;;;;;10.30;4.57;;;;;;;;;;5009592;28;20058;-82
2022/05/09 03:33:16;;;;;;;7.68;4.80;;;;;;;;;;5011630;28;20069;-82
2022/05/09 03:35:43;;;;;;;11.00;4.60;;;;;;;;;;5005113;28;20097;-82
2022/05/09 03:38:09;;;;;;;10.57;4.50;;;;;;;;;;5006281;28;20073;-82
2022/05/09 03:40:35;;;;;;;7.82;4.40;;;;;;;;;;5003742;28;20100;-83
2022/05/09 03:43:02;;;;;;;11.73;4.45;;;;;;;;;;4995995;28;20121;-82
2022/05/09 03:45:28;;;;;;;9.13;4.60;;;;;;;;;;4997249;28;20069;-82
2022/05/09 03:47:54;;;;;;;13.13;4.68;;;;;;;;;;5008955;28;20049;-83
2022/05/09 03:50:21;;;;;;;9.60;4.88;;;;;;;;;;5004500;28;20046;-82
2022/05/09 03:52:47;;;;;;;11.05;4.70;;;;;;;;;;5029469;28;20129;-82
2022/05/09 03:55:13;;;;;;;9.05;4.55;;;;;;;;;;5007882;28;20082;-82
2022/05/09 03:57:49;;;;;;;8.60;4.90;;;;;;;;;;5006256;28;20049;-82
2022/05/09 04:00:19;;;;;;;8.32;4.60;;;;;;;;;;5007781;28;20193;-83
2022/05/09 04:02:46;;;;;;;13.25;5.68;;;;;;;;;;5003553;28;20133;-82
2022/05/09 04:05:16;;;;;;;8.82;4.88;;;;;;;;;;5012082;28;20050;-82
2022/05/09 04:07:46;;;;;;;7.82;4.63;;;;;;;;;;5011142;28;20037;-82
2022/05/09 04:10:13;;;;;;;6.38;4.38;;;;;;;;;;5016305;28;20049;-82
2022/05/09 04:12:40;;;;;;;9.32;3.92;;;;;;;;;;4995223;28;20054;-82
2022/05/09 04:17:51;;;;;;;6.43;4.53;;;;;;;;;;5005490;28;20058;-82
2022/05/09 04:20:17;;;;;;;10.50;5.18;;;;;;;;;;5000775;28;20057;-81
2022/05/09 04:22:43;;;;;;;9.95;4.25;;;;;;;;;;5004113;28;20046;-82
2022/05/09 04:25:09;;;;;;;9.27;4.90;;;;;;;;;;5007666;28;20393;-82
2022/05/09 04:27:36;;;;;;;10.70;5.47;;;;;;;;;;5005407;28;20058;-82
2022/05/09 04:30:03;;;;;;;9.40;4.43;;;;;;;;;;5013957;28;20049;-82
2022/05/09 04:32:29;;;;;;;8.23;5.05;;;;;;;;;;5010964;28;20045;-82
2022/05/09 04:34:55;;;;;;;9.70;5.15;;;;;;;;;;5004392;28;20092;-82
2022/05/09 04:37:21;;;;;;;8.85;4.78;;;;;;;;;;4994575;28;20046;-83
2022/05/09 04:39:48;;;;;;;12.45;4.88;;;;;;;;;;5001570;28;20053;-83
2022/05/09 04:42:14;;;;;;;9.13;4.63;;;;;;;;;;5013038;28;20041;-83
2022/05/09 04:44:40;;;;;;;12.32;5.97;;;;;;;;;;5000222;28;21086;-83
2022/05/09 04:47:07;;;;;;;8.68;4.78;;;;;;;;;;5003076;28;20057;-83
2022/05/09 04:49:33;;;;;;;9.65;4.80;;;;;;;;;;5004244;28;20724;-82
2022/05/09 04:51:59;;;;;;;7.07;4.38;;;;;;;;;;5001805;28;20047;-82
2022/05/09 04:54:25;;;;;;;9.25;4.65;;;;;;;;;;4999187;28;20069;-81
2022/05/09 04:56:51;;;;;;;10.70;4.70;;;;;;;;;;5007081;28;20485;-83
2022/05/09 04:59:17;;;;;;;8.75;5.30;;;;;;;;;;5007197;28;20049;-82
2022/05/09 05:01:44;;;;;;;8.32;4.65;;;;;;;;;;5005986;28;20046;-82
2022/05/09 05:04:19;;;;;;;10.02;5.07;;;;;;;;;;5015795;28;20080;-83
2022/05/09 05:06:45;;;;;;;12.93;5.25;;;;;;;;;;5012184;28;20053;-82
2022/05/09 05:09:11;;;;;;;7.88;4.63;;;;;;;;;;5015234;28;20056;-82
2022/05/09 05:11:37;;;;;;;10.38;5.32;;;;;;;;;;5011596;28;20125;-83
2022/05/09 05:14:04;;;;;;;9.95;4.85;;;;;;;;;;5010968;28;20125;-82
2022/05/09 05:19:14;;;;;;;9.70;5.47;;;;;;;;;;5019014;28;20046;-82
2022/05/09 05:21:44;;;;;;;10.38;5.38;;;;;;;;;;5017484;28;20045;-83
2022/05/09 05:24:10;;;;;;;9.27;5.03;;;;;;;;;;5000865;28;20433;-82
2022/05/09 05:26:36;;;;;;;9.38;5.32;;;;;;;;;;5030524;28;20038;-82
2022/05/09 05:29:06;;;;;;;13.90;6.18;;;;;;;;;;5010323;28;20042;-83
2022/05/09 05:31:32;;;;;;;9.15;5.47;;;;;;;;;;5004101;28;20046;-82
2022/05/09 05:33:58;;;;;;;9.70;5.07;;;;;;;;;;5002993;28;20401;-83
2022/05/09 05:36:24;;;;;;;12.25;5.70;;;;;;;;;;4997455;28;20401;-83
2022/05/09 05:38:53;;;;;;;14.10;5.40;;;;;;;;;;5000578;28;20489;-83
2022/05/09 05:41:19;;;;;;;11.70;5.43;;;;;;;;;;5015240;28;20092;-83
2022/05/09 05:43:46;;;;;;;10.48;5.22;;;;;;;;;;5005987;28;20042;-83
2022/05/09 05:46:12;;;;;;;10.40;5.55;;;;;;;;;;5006001;28;20371;-83
2022/05/09 05:48:41;;;;;;;8.05;5.18;;;;;;;;;;5028212;28;20045;-83
2022/05/09 05:51:07;;;;;;;9.82;5.00;;;;;;;;;;5005100;28;20046;-82
2022/05/09 05:53:36;;;;;;;14.48;5.32;;;;;;;;;;5006969;28;20412;-83
2022/05/09 05:56:02;;;;;;;11.00;5.75;;;;;;;;;;5004384;28;20046;-83
2022/05/09 05:58:28;;;;;;;9.88;5.32;;;;;;;;;;5007819;28;20565;-83
2022/05/09 06:00:55;;;;;;;10.75;5.88;;;;;;;;;;5011244;28;20124;-84
2022/05/09 06:03:21;;;;;;;14.23;5.28;;;;;;;;;;5011030;28;20045;-84
2022/05/09 06:05:50;;;;;;;13.18;5.80;;;;;;;;;;5017505;28;20041;-83
2022/05/09 06:08:16;;;;;;;11.55;5.53;;;;;;;;;;5013170;28;20050;-82
2022/05/09 06:10:43;;;;;;;9.57;5.57;;;;;;;;;;5013921;28;20040;-82
2022/05/09 06:13:09;;;;;;;10.73;6.03;;;;;;;;;;4998158;28;20226;-83
2022/05/09 06:15:36;;;;;;;10.02;5.47;;;;;;;;;;5018247;28;20074;-82
2022/05/09 06:18:09;;;;;;;10.90;5.63;;;;;;;;;;5004181;28;20044;-83
2022/05/09 06:20:39;;;;;;;10.25;5.85;;;;;;;;;;5006977;28;20401;-83
2022/05/09 06:23:06;;;;;;;12.75;5.57;;;;;;;;;;5020688;28;20104;-82
2022/05/09 06:25:36;;;;;;;12.50;5.53;;;;;;;;;;5006259;28;20050;-83
2022/05/09 06:28:04;;;;;;;10.77;5.90;;;;;;;;;;4992949;28;20046;-84
2022/05/09 06:30:33;;;;;;;14.25;6.00;;;;;;;;;;5010626;28;20041;-82
2022/05/09 06:33:00;;;;;;;12.60;5.57;;;;;;;;;;5014298;28;20041;-81
2022/05/09 06:35:26;;;;;;;11.55;5.65;;;;;;;;;;5000465;28;20046;-83
2022/05/09 06:38:03;;;;;;;12.45;5.65;;;;;;;;;;5004573;28;20119;-86
2022/05/09 06:40:30;;;;;;;11.90;6.00;;;;;;;;;;5020143;28;20103;-83
2022/05/09 06:43:00;;;;;;;9.30;5.32;;;;;;;;;;5006409;28;20042;-84
2022/05/09 06:45:26;;;;;;;11.38;5.72;;;;;;;;;;5011757;28;20062;-85
2022/05/09 06:47:53;;;;;;;11.75;5.88;;;;;;;;;;5012260;28;20137;-83
2022/05/09 06:50:21;;;;;;;12.18;5.75;;;;;;;;;;5019468;28;20460;-84
2022/05/09 06:52:47;;;;;;;15.82;6.75;;;;;;;;;;5018696;28;20635;-81
2022/05/09 06:55:13;;;;;;;15.48;5.65;;;;;;;;;;5014126;28;20119;-82
2022/05/09 06:57:41;;;;;;;10.57;5.25;;;;;;;;;;5021511;28;20073;-84
2022/05/09 07:00:08;;;;;;;12.93;5.93;;;;;;;;;;5005187;28;20041;-83
2022/05/09 07:02:34;;;;;;;13.70;6.22;;;;;;;;;;5016210;28;20038;-81
2022/05/09 07:05:07;;;;;;;10.50;5.72;;;;;;;;;;5016770;28;20049;-82
2022/05/09 07:07:36;;;;;;;11.82;6.47;;;;;;;;;;5011096;28;20473;-81
2022/05/09 07:10:03;;;;;;;10.90;5.78;;;;;;;;;;5022887;28;20092;-81
2022/05/09 07:12:32;;;;;;;11.15;5.75;;;;;;;;;;5011884;28;20065;-81
2022/05/09 07:14:58;;;;;;;11.73;5.80;;;;;;;;;;5024449;28;20071;-81
2022/05/09 07:17:24;;;;;;;15.27;6.22;;;;;;;;;;5027737;28;20496;-81
2022/05/09 07:19:50;;;;;;;12.07;5.53;;;;;;;;;;5010979;28;20054;-81
2022/05/09 07:22:17;;;;;;;11.13;6.15;;;;;;;;;;5029449;28;20065;-81
2022/05/09 07:24:46;;;;;;;12.27;5.57;;;;;;;;;;5017076;28;20148;-83
2022/05/09 07:27:17;;;;;;;13.52;5.68;;;;;;;;;;5025712;28;20045;-82
2022/05/09 07:29:43;;;;;;;12.95;6.32;;;;;;;;;;5029822;28;20431;-83
2022/05/09 07:32:09;;;;;;;11.50;6.00;;;;;;;;;;5011942;28;20041;-82
2022/05/09 07:34:35;;;;;;;13.60;5.68;;;;;;;;;;5034116;28;20449;-82
2022/05/09 07:37:01;;;;;;;9.30;5.93;;;;;;;;;;5032522;28;20056;-82
2022/05/09 07:39:27;;;;;;;8.98;5.20;;;;;;;;;;5009319;28;20049;-82
2022/05/09 07:41:56;;;;;;;11.27;6.47;;;;;;;;;;5013571;28;20038;-82
2022/05/09 07:44:22;;;;;;;12.73;5.97;;;;;;;;;;4995088;28;20046;-82
2022/05/09 07:46:48;;;;;;;11.82;5.95;;;;;;;;;;4995143;28;20069;-82
2022/05/09 07:49:14;;;;;;;11.57;6.53;;;;;;;;;;4995534;28;20536;-82
2022/05/09 07:51:41;;;;;;;14.50;6.03;;;;;;;;;;5019132;28;20041;-81
2022/05/09 07:54:07;;;;;;;10.95;5.55;;;;;;;;;;5031531;28;20049;-82
2022/05/09 07:56:33;;;;;;;11.43;5.53;;;;;;;;;;4997465;28;20061;-82
2022/05/09 07:59:04;;;;;;;14.25;6.10;;;;;;;;;;4994430;28;20059;-82
2022/05/09 08:01:30;;;;;;;11.70;5.32;;;;;;;;;;5015762;28;20038;-81
2022/05/09 08:03:58;;;;;;;11.73;5.18;;;;;;;;;;5032070;28;20038;-82
2022/05/09 08:06:25;;;;;;;8.80;5.00;;;;;;;;;;5011807;28;20046;-82
2022/05/09 08:08:51;;;;;;;8.93;5.22;;;;;;;;;;5010985;28;20076;-82
2022/05/09 08:11:21;;;;;;;11.32;4.90;;;;;;;;;;5012306;28;20153;-82
2022/05/09 08:13:47;;;;;;;8.40;4.20;;;;;;;;;;5012158;28;20121;-82
2022/05/09 08:16:13;;;;;;;7.72;4.60;;;;;;;;;;5006602;28;20125;-82
2022/05/09 08:18:40;;;;;;;10.25;4.82;;;;;;;;;;5026722;28;20111;-82
2022/05/09 08:21:09;;;;;;;15.02;4.90;;;;;;;;;;5019351;28;20073;-82
2022/05/09 08:23:35;;;;;;;14.73;4.90;;;;;;;;;;5000913;28;20077;-81
2022/05/09 08:26:03;;;;;;;8.52;4.35;;;;;;;;;;5024670;28;20395;-82
2022/05/09 08:28:29;;;;;;;12.55;4.55;;;;;;;;;;5032222;28;20095;-81
2022/05/09 08:30:55;;;;;;;9.48;4.60;;;;;;;;;;5026380;28;20048;-82
2022/05/09 08:33:25;;;;;;;11.85;4.35;;;;;;;;;;5025993;28;20127;-82
2022/05/09 08:35:52;;;;;;;9.40;4.00;;;;;;;;;;5017885;28;20050;-81
2022/05/09 08:38:19;;;;;;;13.55;4.70;;;;;;;;;;5000640;28;20043;-82
2022/05/09 08:40:49;;;;;;;12.40;4.70;;;;;;;;;;4992426;28;20046;-81
2022/05/09 08:43:23;;;;;;;15.05;4.85;;;;;;;;;;4992597;28;20519;-81
2022/05/09 08:45:52;;;;;;;10.05;4.22;;;;;;;;;;4992904;28;20556;-82
2022/05/09 08:48:18;;;;;;;10.13;4.32;;;;;;;;;;5015830;28;20101;-82
2022/05/09 08:50:47;;;;;;;10.82;4.40;;;;;;;;;;4994310;28;20062;-82
2022/05/09 08:53:19;;;;;;;11.88;4.70;;;;;;;;;;5022394;28;20120;-82
2022/05/09 08:55:46;;;;;;;10.77;4.47;;;;;;;;;;4993769;28;20108;-82
2022/05/09 08:58:37;;;;;;;7.75;4.07;;;;;;;;;;5022468;28;20073;-82
2022/05/09 09:01:03;;;;;;;10.57;4.07;;;;;;;;;;5010561;28;20054;-82
2022/05/09 09:03:38;;;;;;;9.00;3.95;;;;;;;;;;5011760;28;20048;-81
2022/05/09 09:06:24;;;;;;;8.15;3.80;;;;;;;;;;4996081;28;20050;-82
2022/05/09 09:08:50;;;;;;;8.60;4.25;;;;;;;;;;5008660;28;20113;-81
2022/05/09 09:11:16;;;;;;;5.68;3.35;;;;;;;;;;4996355;28;20456;-81
2022/05/09 09:13:53;;;;;;;7.72;3.75;;;;;;;;;;5001708;28;20046;-81
2022/05/09 09:16:22;;;;;;;6.40;3.42;;;;;;;;;;5017831;28;20038;-82
2022/05/09 09:18:54;;;;;;;6.97;3.42;;;;;;;;;;5024807;28;20439;-81
2022/05/09 09:21:35;;;;;;;5.30;2.97;;;;;;;;;;4995545;28;20050;-81
2022/05/09 09:24:23;;;;;;;7.43;3.13;;;;;;;;;;5025899;28;20099;-80
2022/05/09 09:27:08;;;;;;;9.32;3.58;;;;;;;;;;5012165;28;20071;-81
2022/05/09 09:29:46;;;;;;;9.18;3.55;;;;;;;;;;5031205;28;20041;-81
2022/05/09 09:32:15;;;;;;;9.20;3.67;;;;;;;;;;5006791;28;20112;-81
2022/05/09 09:34:50;;;;;;;9.38;3.17;;;;;;;;;;4994123;28;20046;-80
2022/05/09 09:37:38;;;;;;;12.55;3.70;;;;;;;;;;5009422;28;20052;-80
2022/05/09 09:40:04;;;;;;;7.50;3.00;;;;;;;;;;5031263;28;20111;-80
2022/05/09 09:42:30;;;;;;;7.65;2.80;;;;;;;;;;5031413;28;20049;-79
2022/05/09 09:45:00;;;;;;;6.80;3.20;;;;;;;;;;4996265;28;20086;-80
2022/05/09 09:47:27;;;;;;;7.22;2.80;;;;;;;;;;5006325;28;20033;-81
2022/05/09 09:50:12;;;;;;;6.53;3.42;;;;;;;;;;5020621;28;20052;-80
2022/05/09 09:52:45;;;;;;;10.95;3.05;;;;;;;;;;5011993;28;20041;-80
2022/05/09 09:55:22;;;;;;;9.65;3.97;;;;;;;;;;5032079;28;20045;-80
2022/05/09 09:57:48;;;;;;;8.85;4.07;;;;;;;;;;5007443;28;20049;-81
2022/05/09 10:00:23;;;;;;;11.25;4.82;;;;;;;;;;5026560;28;20049;-81
2022/05/09 10:02:53;;;;;;;13.27;4.93;;;;;;;;;;5013774;28;20041;-80
2022/05/09 10:05:22;;;;;;;9.35;4.53;;;;;;;;;;5009710;28;20057;-80
2022/05/09 10:07:48;;;;;;;10.68;4.78;;;;;;;;;;5011114;28;20053;-80
2022/05/09 10:10:23;;;;;;;10.68;4.78;;;;;;;;;;4996141;28;20050;-80
2022/05/09 10:12:50;;;;;;;8.18;4.65;;;;;;;;;;4991650;28;20045;-81
2022/05/09 10:15:25;;;;;;;10.13;5.00;;;;;;;;;;5003602;28;20054;-80
2022/05/09 10:17:55;;;;;;;8.85;4.82;;;;;;;;;;5007978;28;20053;-80
2022/05/09 10:20:27;;;;;;;8.82;5.18;;;;;;;;;;5030178;28;20061;-81
2022/05/09 10:26:03;;;;;;;10.30;5.68;;;;;;;;;;5029585;28;20397;-80
2022/05/09 10:28:31;;;;;;;12.77;6.30;;;;;;;;;;5021494;28;20049;-80
2022/05/09 10:31:02;;;;;;;10.68;5.50;;;;;;;;;;5016116;28;20370;-80
2022/05/09 10:34:03;;;;;;;11.73;5.53;;;;;;;;;;4995579;28;20042;-80
2022/05/09 10:36:38;;;;;;;11.70;4.78;;;;;;;;;;4959464;28;20057;-79
2022/05/09 10:39:13;;;;;;;9.10;4.75;;;;;;;;;;5013427;28;20049;-79
2022/05/09 10:41:44;;;;;;;8.80;4.07;;;;;;;;;;5006855;28;20510;-79
2022/05/09 10:44:13;;;;;;;7.25;3.67;;;;;;;;;;5009067;28;20128;-80
2022/05/09 10:46:43;;;;;;;10.60;4.47;;;;;;;;;;5003104;28;20065;-80
2022/05/09 10:49:19;;;;;;;9.82;5.10;;;;;;;;;;5007794;28;20053;-80
2022/05/09 10:52:04;;;;;;;12.35;4.85;;;;;;;;;;5004388;28;20486;-81
2022/05/09 10:54:42;;;;;;;8.32;4.35;;;;;;;;;;5005948;28;20354;-80
2022/05/09 10:57:15;;;;;;;10.32;4.47;;;;;;;;;;5011688;28;20485;-81
2022/05/09 10:59:42;;;;;;;8.05;4.18;;;;;;;;;;5023544;28;20091;-80
2022/05/09 11:02:17;;;;;;;9.68;5.03;;;;;;;;;;5009057;28;20046;-80
2022/05/09 11:04:44;;;;;;;10.60;4.00;;;;;;;;;;5008035;28;20058;-80
2022/05/09 11:07:28;;;;;;;8.73;4.05;;;;;;;;;;5010505;28;20120;-80
2022/05/09 11:10:13;;;;;;;10.45;4.50;;;;;;;;;;5021697;28;20081;-81
2022/05/09 11:12:45;;;;;;;9.43;4.70;;;;;;;;;;5003953;28;20046;-80
2022/05/09 11:15:15;;;;;;;10.02;4.43;;;;;;;;;;5005798;28;20069;-80
2022/05/09 11:17:52;;;;;;;10.70;4.05;;;;;;;;;;5006006;28;20552;-80
2022/05/09 11:20:30;;;;;;;7.57;4.20;;;;;;;;;;5010459;28;20050;-80
2022/05/09 11:23:15;;;;;;;9.77;4.32;;;;;;;;;;5013103;28;20397;-80
2022/05/09 11:25:47;;;;;;;9.77;4.38;;;;;;;;;;5020205;28;20045;-81
2022/05/09 11:28:42;;;;;;;11.95;3.83;;;;;;;;;;5011724;28;20473;-79
2022/05/09 11:31:12;;;;;;;8.43;3.42;;;;;;;;;;4993633;28;20062;-80
2022/05/09 11:33:45;;;;;;;7.65;3.33;;;;;;;;;;5012062;28;20049;-80
2022/05/09 11:36:25;;;;;;;6.30;3.17;;;;;;;;;;5028291;28;20058;-81
2022/05/09 11:38:51;;;;;;;7.78;3.60;;;;;;;;;;5023407;28;20563;-80
2022/05/09 11:41:22;;;;;;;7.88;3.22;;;;;;;;;;4993661;28;20466;-81
2022/05/09 11:43:51;;;;;;;4.85;2.70;;;;;;;;;;4993662;28;20057;-81
2022/05/09 11:46:27;;;;;;;6.35;2.90;;;;;;;;;;5012087;28;20042;-80
2022/05/09 11:48:56;;;;;;;7.15;2.90;;;;;;;;;;5012063;28;20125;-83
2022/05/09 11:51:31;;;;;;;7.30;2.80;;;;;;;;;;5010509;28;20081;-82
2022/05/09 11:53:59;;;;;;;5.65;2.97;;;;;;;;;;5023759;28;20041;-81
2022/05/09 11:56:26;;;;;;;5.82;2.63;;;;;;;;;;5026393;28;20034;-81
2022/05/09 11:58:52;;;;;;;5.90;2.90;;;;;;;;;;5019335;28;20037;-81
2022/05/09 12:01:38;;;;;;;5.22;2.50;;;;;;;;;;5012379;28;20046;-81
2022/05/09 12:04:05;;;;;;;4.55;2.65;;;;;;;;;;5025960;28;20041;-80
2022/05/09 12:06:36;;;;;;;5.75;3.20;;;;;;;;;;4996742;28;20047;-80
2022/05/09 12:09:08;;;;;;;8.23;3.10;;;;;;;;;;5021319;28;20073;-81
2022/05/09 12:11:48;;;;;;;8.13;2.90;;;;;;;;;;5029745;28;20041;-80
2022/05/09 12:14:34;;;;;;;9.80;3.10;;;;;;;;;;5025773;28;20057;-81
2022/05/09 12:17:03;;;;;;;5.88;2.88;;;;;;;;;;5001440;28;20042;-81
2022/05/09 12:19:34;;;;;;;7.20;3.00;;;;;;;;;;5019548;28;20050;-80
2022/05/09 12:22:18;;;;;;;7.68;3.17;;;;;;;;;;5029551;28;20050;-79
2022/05/09 12:24:47;;;;;;;7.82;3.25;;;;;;;;;;5020820;28;20130;-80
2022/05/09 12:27:36;;;;;;;4.78;2.70;;;;;;;;;;5031755;28;20455;-80
2022/05/09 12:30:03;;;;;;;7.40;2.58;;;;;;;;;;5018937;28;20489;-80
2022/05/09 12:32:29;;;;;;;6.07;2.80;;;;;;;;;;5028170;28;20046;-80
2022/05/09 12:34:58;;;;;;;5.97;2.80;;;;;;;;;;5025018;28;20045;-80
2022/05/09 12:37:25;;;;;;;8.77;2.60;;;;;;;;;;4996487;28;20046;-80
2022/05/09 12:39:55;;;;;;;5.95;2.80;;;;;;;;;;5027370;28;20049;-80
2022/05/09 12:42:27;;;;;;;8.50;3.00;;;;;;;;;;4995235;28;20486;-80
2022/05/09 12:44:56;;;;;;;5.50;2.70;;;;;;;;;;5023977;28;20049;-80
2022/05/09 12:47:28;;;;;;;5.07;2.55;;;;;;;;;;5020469;28;20387;-81
2022/05/09 12:49:57;;;;;;;7.80;2.75;;;;;;;;;;5010937;28;20050;-80
2022/05/09 12:52:24;;;;;;;6.25;2.80;;;;;;;;;;5010709;28;20089;-81
2022/05/09 12:57:38;;;;;;;8.30;3.22;;;;;;;;;;5016147;28;20045;-80
2022/05/09 13:00:16;;;;;;;5.05;2.63;;;;;;;;;;5032569;28;20508;-81
2022/05/09 13:02:42;;;;;;;7.85;2.58;;;;;;;;;;5028702;28;20061;-81
2022/05/09 13:05:08;;;;;;;4.57;2.25;;;;;;;;;;5022226;28;20045;-80
2022/05/09 13:07:52;;;;;;;8.52;2.63;;;;;;;;;;4997969;28;20048;-80
2022/05/09 13:10:18;;;;;;;7.57;2.80;;;;;;;;;;5014089;28;20096;-80
2022/05/09 13:12:44;;;;;;;9.02;3.00;;;;;;;;;;5012619;28;20050;-80
2022/05/09 13:15:13;;;;;;;7.93;2.95;;;;;;;;;;5026230;28;20077;-80
2022/05/09 13:17:46;;;;;;;7.35;2.97;;;;;;;;;;5014040;28;20052;-80
2022/05/09 13:20:13;;;;;;;7.77;3.27;;;;;;;;;;5012707;28;21747;-80
2022/05/09 13:22:47;;;;;;;5.60;2.67;;;;;;;;;;5030461;28;20084;-80
2022/05/09 13:25:21;;;;;;;6.43;2.40;;;;;;;;;;5020321;28;20136;-80
2022/05/09 13:27:49;;;;;;;5.47;2.78;;;;;;;;;;5021216;28;20056;-80
2022/05/09 13:30:16;;;;;;;8.25;2.70;;;;;;;;;;5010370;28;20491;-80
2022/05/09 13:32:42;;;;;;;5.35;2.50;;;;;;;;;;5021599;28;20042;-81
2022/05/09 13:35:23;;;;;;;7.22;2.80;;;;;;;;;;5016810;28;20091;-80
2022/05/09 13:37:52;;;;;;;7.82;2.88;;;;;;;;;;5021977;28;20503;-81
2022/05/09 13:40:19;;;;;;;10.88;2.78;;;;;;;;;;5027165;28;20438;-81
2022/05/09 13:42:46;;;;;;;8.45;2.75;;;;;;;;;;5006581;28;20060;-81
2022/05/09 13:45:17;;;;;;;6.97;2.55;;;;;;;;;;5010562;28;20040;-80
2022/05/09 13:47:45;;;;;;;7.35;2.50;;;;;;;;;;5026831;28;20049;-80
2022/05/09 13:50:22;;;;;;;5.05;2.90;;;;;;;;;;5006186;28;20045;-81
2022/05/09 13:52:51;;;;;;;3.35;2.40;;;;;;;;;;5005408;28;20041;-80
2022/05/09 13:55:34;;;;;;;5.20;2.83;;;;;;;;;;5011245;28;20791;-80
2022/05/09 13:58:02;;;;;;;6.82;3.10;;;;;;;;;;5019033;28;20487;-80
2022/05/09 14:00:38;;;;;;;7.57;3.00;;;;;;;;;;5017486;28;20041;-80
2022/05/09 14:03:11;;;;;;;8.13;2.72;;;;;;;;;;5008338;28;20057;-80
2022/05/09 14:05:39;;;;;;;6.88;2.78;;;;;;;;;;5011427;28;20050;-80
2022/05/09 14:08:06;;;;;;;5.45;2.97;;;;;;;;;;5015201;28;20045;-80
2022/05/09 14:10:43;;;;;;;7.15;2.85;;;;;;;;;;5030324;28;20050;-80
2022/05/09 14:13:28;;;;;;;4.55;2.50;;;;;;;;;;4995967;28;20069;-80
2022/05/09 14:15:58;;;;;;;4.18;2.50;;;;;;;;;;5008118;28;20057;-80
2022/05/09 14:18:29;;;;;;;5.55;2.67;;;;;;;;;;5045874;28;20088;-80
2022/05/09 14:20:59;;;;;;;2.65;2.30;;;;;;;;;;5027880;28;20401;-79
2022/05/09 14:23:26;;;;;;;3.33;2.10;;;;;;;;;;5006344;28;20077;-79
2022/05/09 14:31:44;;;;;;;4.43;2.45;;;;;;;;;;5038487;28;20132;-79
2022/05/09 14:34:15;;;;;;;5.97;2.10;;;;;;;;;;5024874;28;20071;-80
2022/05/09 14:36:42;;;;;;;4.53;2.25;;;;;;;;;;5029637;28;20071;-80
2022/05/09 14:39:28;;;;;;;5.05;2.03;;;;;;;;;;5008785;28;20057;-80
2022/05/09 14:42:05;;;;;;;4.40;2.17;;;;;;;;;;5027085;28;20552;-80
2022/05/09 14:44:31;;;;;;;4.50;1.98;;;;;;;;;;5010206;28;20049;-80
2022/05/09 14:46:58;;;;;;;4.80;2.35;;;;;;;;;;5026057;28;20045;-80
2022/05/09 14:49:24;;;;;;;4.60;2.45;;;;;;;;;;5020715;28;20172;-79
2022/05/09 14:51:59;;;;;;;4.93;2.17;;;;;;;;;;5023438;28;20050;-80
2022/05/09 14:54:27;;;;;;;2.80;2.17;;;;;;;;;;5022811;28;20053;-80
2022/05/09 14:59:46;;;;;;;3.80;2.13;;;;;;;;;;5037240;28;20056;-80
2022/05/09 15:02:33;;;;;;;4.75;2.40;;;;;;;;;;5016969;28;20046;-80
2022/05/09 15:05:00;;;;;;;7.00;2.50;;;;;;;;;;5026785;28;20049;-80
2022/05/09 15:07:30;;;;;;;3.92;2.60;;;;;;;;;;5032216;28;20118;-80
2022/05/09 15:09:59;;;;;;;3.53;2.20;;;;;;;;;;5008951;28;20046;-80
2022/05/09 15:12:32;;;;;;;4.32;2.20;;;;;;;;;;5006685;28;20138;-80
2022/05/09 15:14:58;;;;;;;6.80;2.83;;;;;;;;;;5016800;28;20053;-80
2022/05/09 15:17:24;;;;;;;5.63;2.90;;;;;;;;;;5013409;28;20053;-80